createdAt,value
2022-10-30T00:00:02.259Z,12.18
2022-10-30T00:02:59.026Z,20.10
2022-10-30T00:05:26.325Z,13.32
2022-10-30T00:07:55.884Z,12.85
2022-10-30T00:10:23.464Z,13.18
2022-10-30T00:12:50.146Z,18.15
2022-10-30T00:15:17.146Z,19.90
2022-10-30T00:17:43.804Z,14.70
2022-10-30T00:20:10.783Z,15.52
2022-10-30T00:22:37.944Z,16.55
2022-10-30T00:25:05.347Z,12.73
2022-10-30T00:27:32.034Z,16.33
2022-10-30T00:29:58.844Z,22.55
2022-10-30T00:32:25.510Z,13.50
2022-10-30T00:34:52.124Z,17.70
2022-10-30T00:37:18.951Z,16.27
2022-10-30T00:39:45.654Z,12.40
2022-10-30T00:42:14.848Z,11.35
2022-10-30T00:44:44.658Z,11.48
2022-10-30T00:47:14.174Z,13.60
2022-10-30T00:49:49.620Z,16.13
2022-10-30T00:52:16.901Z,12.10
2022-10-30T00:54:43.837Z,14.70
2022-10-30T00:57:13.720Z,11.93
2022-10-30T00:59:40.561Z,12.07
2022-10-30T01:02:07.521Z,12.60
2022-10-30T01:04:37.895Z,15.47
2022-10-30T01:07:13.112Z,23.80
2022-10-30T01:09:39.952Z,22.17
2022-10-30T01:12:07.549Z,28.98
2022-10-30T01:14:37.749Z,17.23
2022-10-30T01:17:19.519Z,14.57
2022-10-30T01:20:07.767Z,16.90
2022-10-30T01:22:52.648Z,22.23
2022-10-30T01:25:22.580Z,22.25
2022-10-30T01:28:19.036Z,29.70
2022-10-30T01:31:19.602Z,22.97
2022-10-30T01:34:18.815Z,35.38
2022-10-30T01:37:01.569Z,51.15
2022-10-30T01:39:33.845Z,36.50
2022-10-30T01:42:32.132Z,30.00
2022-10-30T01:44:59.073Z,25.23
2022-10-30T01:47:57.088Z,24.92
2022-10-30T01:50:38.882Z,21.95
2022-10-30T01:53:20.291Z,19.65
2022-10-30T01:56:00.294Z,14.20
2022-10-30T01:58:47.450Z,17.80
2022-10-30T02:01:15.084Z,15.10
2022-10-30T02:03:42.410Z,16.10
2022-10-30T02:06:09.046Z,14.18
2022-10-30T02:08:35.853Z,13.52
2022-10-30T02:11:03.508Z,18.00
2022-10-30T02:13:38.358Z,14.60
2022-10-30T02:16:05.931Z,12.93
2022-10-30T02:18:32.840Z,17.83
2022-10-30T02:21:01.257Z,12.95
2022-10-30T02:23:28.450Z,14.90
2022-10-30T02:25:55.354Z,13.77
2022-10-30T02:28:22.053Z,15.00
2022-10-30T02:30:49.226Z,16.85
2022-10-30T02:35:49.219Z,16.00
2022-10-30T02:38:16.095Z,14.77
2022-10-30T02:40:42.924Z,12.70
2022-10-30T02:43:09.726Z,12.10
2022-10-30T02:45:36.533Z,12.38
2022-10-30T02:48:03.723Z,16.03
2022-10-30T02:50:31.669Z,14.18
2022-10-30T02:52:59.527Z,14.07
2022-10-30T02:55:27.567Z,15.45
2022-10-30T02:57:54.338Z,11.00
2022-10-30T03:00:21.118Z,12.17
2022-10-30T03:02:48.200Z,12.90
2022-10-30T03:05:15.070Z,14.02
2022-10-30T03:07:41.862Z,15.75
2022-10-30T03:10:08.997Z,12.73
2022-10-30T03:12:36.316Z,14.87
2022-10-30T03:15:03.230Z,15.63
2022-10-30T03:17:30.531Z,12.52
2022-10-30T03:19:57.414Z,12.77
2022-10-30T03:22:24.408Z,15.02
2022-10-30T03:24:51.010Z,13.57
2022-10-30T03:27:18.076Z,10.90
2022-10-30T03:29:44.703Z,11.02
2022-10-30T03:32:13.109Z,12.43
2022-10-30T03:34:46.235Z,12.48
2022-10-30T03:37:12.872Z,12.83
2022-10-30T03:39:39.554Z,14.30
2022-10-30T03:42:06.640Z,12.45
2022-10-30T03:44:33.251Z,12.18
2022-10-30T03:47:00.109Z,13.20
2022-10-30T03:49:29.862Z,12.50
2022-10-30T03:51:57.628Z,15.13
2022-10-30T03:54:25.901Z,12.70
2022-10-30T03:56:52.903Z,16.77
2022-10-30T03:59:20.584Z,21.42
2022-10-30T04:02:13.280Z,24.53
2022-10-30T04:04:40.362Z,20.23
2022-10-30T04:07:07.116Z,22.10
2022-10-30T04:09:34.058Z,18.45
2022-10-30T04:12:00.707Z,23.92
2022-10-30T04:14:27.505Z,14.87
2022-10-30T04:16:54.232Z,14.27
2022-10-30T04:19:20.845Z,10.98
2022-10-30T04:21:49.738Z,16.35
2022-10-30T04:24:18.749Z,11.80
2022-10-30T04:26:48.256Z,20.70
2022-10-30T04:29:15.139Z,21.02
2022-10-30T04:31:42.279Z,17.33
2022-10-30T04:34:09.309Z,14.27
2022-10-30T04:36:36.211Z,13.35
2022-10-30T04:39:03.195Z,17.53
2022-10-30T04:41:31.171Z,18.25
2022-10-30T04:44:06.428Z,20.38
2022-10-30T04:46:33.258Z,12.55
2022-10-30T04:49:07.543Z,13.70
2022-10-30T04:51:35.098Z,18.20
2022-10-30T04:54:02.139Z,12.60
2022-10-30T04:56:33.037Z,13.20
2022-10-30T04:59:00.047Z,22.45
2022-10-30T05:01:26.895Z,25.77
2022-10-30T05:03:54.987Z,28.53
2022-10-30T05:06:25.398Z,16.75
2022-10-30T05:08:52.266Z,12.55
2022-10-30T05:11:41.840Z,14.93
2022-10-30T05:14:08.680Z,14.25
2022-10-30T05:16:35.332Z,13.80
2022-10-30T05:19:04.319Z,14.98
2022-10-30T05:21:32.984Z,13.85
2022-10-30T05:23:59.787Z,15.55
2022-10-30T05:26:28.305Z,14.00
2022-10-30T05:28:55.175Z,15.23
2022-10-30T05:31:21.861Z,12.30
2022-10-30T05:34:14.826Z,14.02
2022-10-30T05:36:42.622Z,19.20
2022-10-30T05:39:12.135Z,24.23
2022-10-30T05:41:43.082Z,18.07
2022-10-30T05:44:09.873Z,21.67
2022-10-30T05:46:38.638Z,13.60
2022-10-30T05:49:18.103Z,18.02
2022-10-30T05:51:45.333Z,12.70
2022-10-30T05:54:12.246Z,12.30
2022-10-30T05:56:50.013Z,15.73
2022-10-30T05:59:18.118Z,12.70
2022-10-30T06:04:12.705Z,15.90
2022-10-30T06:06:39.337Z,15.37
2022-10-30T06:09:06.154Z,19.35
2022-10-30T06:11:41.273Z,16.23
2022-10-30T06:14:09.879Z,28.60
2022-10-30T06:16:51.603Z,26.67
2022-10-30T06:19:33.555Z,24.93
2022-10-30T06:22:13.665Z,15.43
2022-10-30T06:24:57.045Z,20.70
2022-10-30T06:27:43.915Z,25.88
2022-10-30T06:30:11.168Z,22.92
2022-10-30T06:32:37.829Z,20.83
2022-10-30T06:35:04.940Z,19.98
2022-10-30T06:37:32.161Z,16.83
2022-10-30T06:40:07.005Z,26.35
2022-10-30T06:42:53.678Z,23.63
2022-10-30T06:45:34.247Z,34.03
2022-10-30T06:48:02.437Z,31.38
2022-10-30T06:50:34.101Z,28.42
2022-10-30T06:53:00.788Z,23.73
2022-10-30T06:55:28.247Z,24.40
2022-10-30T06:58:30.698Z,24.57
2022-10-30T07:01:08.263Z,23.17
2022-10-30T07:03:40.563Z,21.40
2022-10-30T07:06:08.073Z,21.30
2022-10-30T07:08:35.082Z,16.10
2022-10-30T07:11:01.810Z,16.80
2022-10-30T07:13:47.357Z,15.52
2022-10-30T07:16:32.350Z,13.52
2022-10-30T07:19:03.708Z,16.33
2022-10-30T07:21:32.028Z,12.25
2022-10-30T07:23:58.709Z,10.37
2022-10-30T07:26:30.209Z,15.60
2022-10-30T07:29:02.291Z,11.20
2022-10-30T07:32:03.080Z,12.93
2022-10-30T07:34:56.317Z,15.98
2022-10-30T07:37:29.745Z,13.27
2022-10-30T07:40:11.619Z,14.68
2022-10-30T07:43:02.402Z,12.27
2022-10-30T07:45:46.730Z,9.15
2022-10-30T07:48:33.782Z,12.00
2022-10-30T07:51:06.170Z,14.77
2022-10-30T07:53:33.308Z,14.05
2022-10-30T07:56:00.562Z,13.88
2022-10-30T07:58:46.023Z,10.48
2022-10-30T08:01:35.219Z,11.68
2022-10-30T08:04:15.793Z,9.07
2022-10-30T08:06:43.848Z,10.02
2022-10-30T08:09:10.522Z,10.77
2022-10-30T08:11:37.472Z,11.82
2022-10-30T08:14:05.051Z,11.52
2022-10-30T08:16:32.126Z,11.40
2022-10-30T08:18:58.815Z,11.18
2022-10-30T08:21:25.922Z,10.40
2022-10-30T08:24:00.877Z,11.57
2022-10-30T08:26:30.390Z,9.65
2022-10-30T08:28:56.998Z,7.93
2022-10-30T08:31:25.495Z,9.93
2022-10-30T08:34:01.329Z,9.65
2022-10-30T08:37:00.856Z,10.95
2022-10-30T08:39:27.734Z,9.55
2022-10-30T08:42:00.897Z,11.13
2022-10-30T08:44:33.695Z,12.43
2022-10-30T08:47:23.588Z,13.85
2022-10-30T08:49:50.467Z,16.17
2022-10-30T08:52:21.111Z,12.27
2022-10-30T08:54:54.330Z,23.43
2022-10-30T08:57:23.480Z,17.15
2022-10-30T08:59:51.174Z,19.63
2022-10-30T09:02:40.941Z,19.85
2022-10-30T09:05:26.803Z,15.23
2022-10-30T09:08:13.947Z,16.60
2022-10-30T09:11:13.082Z,17.17
2022-10-30T09:13:40.328Z,42.53
2022-10-30T09:16:07.193Z,23.73
2022-10-30T09:18:36.493Z,20.05
2022-10-30T09:21:05.068Z,16.40
2022-10-30T09:23:37.225Z,16.27
2022-10-30T09:26:24.473Z,16.45
2022-10-30T09:28:56.350Z,19.88
2022-10-30T09:31:46.237Z,19.08
2022-10-30T09:34:17.280Z,17.93
2022-10-30T09:36:54.740Z,16.92
2022-10-30T09:39:23.024Z,21.55
2022-10-30T09:42:17.440Z,24.42
2022-10-30T09:45:27.321Z,21.75
2022-10-30T09:48:03.449Z,20.77
2022-10-30T09:51:19.905Z,23.67
2022-10-30T09:54:20.506Z,20.55
2022-10-30T09:57:01.316Z,17.45
2022-10-30T09:59:56.203Z,17.52
2022-10-30T10:02:33.831Z,25.63
2022-10-30T10:05:06.909Z,21.38
2022-10-30T10:07:54.481Z,20.45
2022-10-30T10:10:51.140Z,19.45
2022-10-30T10:13:27.149Z,18.50
2022-10-30T10:16:03.230Z,16.80
2022-10-30T10:18:35.666Z,16.58
2022-10-30T10:21:12.275Z,21.70
2022-10-30T10:23:49.091Z,18.35
2022-10-30T10:26:29.735Z,19.20
2022-10-30T10:29:32.592Z,21.37
2022-10-30T10:32:28.086Z,21.38
2022-10-30T10:35:04.019Z,22.70
2022-10-30T10:37:53.844Z,17.38
2022-10-30T10:40:45.173Z,24.83
2022-10-30T10:43:24.262Z,24.17
2022-10-30T10:45:56.970Z,24.85
2022-10-30T10:48:39.089Z,20.30
2022-10-30T10:51:18.030Z,21.35
2022-10-30T10:53:56.452Z,20.25
2022-10-30T10:56:31.066Z,16.30
2022-10-30T10:59:03.181Z,15.75
2022-10-30T11:01:38.250Z,17.58
2022-10-30T11:04:24.161Z,19.30
2022-10-30T11:06:53.403Z,19.42
2022-10-30T11:09:22.215Z,22.10
2022-10-30T11:11:51.275Z,20.02
2022-10-30T11:14:24.424Z,21.98
2022-10-30T11:16:57.078Z,20.77
2022-10-30T11:19:25.018Z,19.90
2022-10-30T11:21:55.207Z,21.43
2022-10-30T11:24:33.592Z,19.90
2022-10-30T11:27:25.733Z,24.65
2022-10-30T11:29:57.556Z,25.90
2022-10-30T11:32:28.200Z,23.70
2022-10-30T11:35:01.053Z,21.07
2022-10-30T11:37:36.525Z,21.88
2022-10-30T11:40:14.093Z,19.63
2022-10-30T11:42:43.973Z,19.77
2022-10-30T11:45:18.671Z,17.13
2022-10-30T11:47:46.517Z,20.67
2022-10-30T11:50:21.134Z,24.67
2022-10-30T11:52:50.954Z,20.52
2022-10-30T11:55:28.771Z,16.05
2022-10-30T11:57:58.188Z,19.20
2022-10-30T12:00:29.165Z,20.47
2022-10-30T12:02:58.307Z,22.85
2022-10-30T12:05:25.336Z,20.75
2022-10-30T12:08:10.903Z,27.75
2022-10-30T12:10:58.458Z,18.58
2022-10-30T12:13:26.609Z,17.60
2022-10-30T12:16:14.737Z,20.88
2022-10-30T12:18:42.495Z,15.95
2022-10-30T12:21:10.125Z,18.98
2022-10-30T12:23:38.329Z,21.88
2022-10-30T12:26:10.892Z,22.83
2022-10-30T12:28:38.997Z,16.63
2022-10-30T12:31:08.845Z,19.92
2022-10-30T12:33:38.974Z,20.00
2022-10-30T12:36:10.971Z,15.50
2022-10-30T12:38:47.436Z,15.97
2022-10-30T12:41:25.319Z,17.25
2022-10-30T12:44:02.907Z,14.82
2022-10-30T12:46:36.218Z,17.30
2022-10-30T12:49:12.898Z,17.10
2022-10-30T12:51:51.386Z,17.17
2022-10-30T12:54:30.577Z,15.77
2022-10-30T12:57:07.305Z,16.35
2022-10-30T12:59:46.035Z,16.85
2022-10-30T13:02:20.675Z,15.05
2022-10-30T13:04:51.306Z,18.73
2022-10-30T13:08:01.367Z,15.25
2022-10-30T13:10:42.107Z,17.55
2022-10-30T13:13:32.411Z,13.50
2022-10-30T13:16:02.274Z,16.73
2022-10-30T13:18:33.000Z,13.53
2022-10-30T13:21:05.899Z,15.02
2022-10-30T13:24:05.778Z,16.70
2022-10-30T13:26:49.542Z,12.88
2022-10-30T13:29:37.749Z,14.00
2022-10-30T13:32:44.315Z,15.27
2022-10-30T13:35:41.181Z,13.63
2022-10-30T13:38:16.899Z,13.50
2022-10-30T13:41:12.574Z,13.65
2022-10-30T13:44:04.351Z,16.95
2022-10-30T13:46:58.404Z,14.80
2022-10-30T13:49:51.466Z,11.50
2022-10-30T13:52:20.835Z,11.45
2022-10-30T13:54:47.478Z,11.00
2022-10-30T13:57:34.597Z,16.08
2022-10-30T14:00:05.194Z,13.73
2022-10-30T14:03:01.295Z,12.13
2022-10-30T14:05:43.166Z,10.68
2022-10-30T14:08:28.222Z,15.93
2022-10-30T14:11:00.580Z,13.07
2022-10-30T14:13:46.282Z,14.83
2022-10-30T14:16:32.213Z,11.85
2022-10-30T14:19:03.060Z,12.73
2022-10-30T14:21:39.733Z,11.15
2022-10-30T14:24:13.961Z,11.85
2022-10-30T14:26:49.991Z,12.07
2022-10-30T14:29:45.995Z,10.60
2022-10-30T14:32:15.661Z,15.00
2022-10-30T14:34:43.315Z,10.65
2022-10-30T14:37:11.178Z,10.43
2022-10-30T14:39:43.280Z,15.13
2022-10-30T14:42:47.342Z,14.60
2022-10-30T14:45:16.994Z,17.23
2022-10-30T14:47:53.437Z,13.02
2022-10-30T14:50:20.318Z,12.85
2022-10-30T14:53:11.446Z,13.77
2022-10-30T14:56:00.230Z,15.95
2022-10-30T14:58:29.875Z,14.23
2022-10-30T15:01:22.212Z,17.42
2022-10-30T15:03:51.953Z,16.60
2022-10-30T15:07:01.867Z,17.83
2022-10-30T15:09:52.917Z,12.32
2022-10-30T15:12:37.659Z,12.63
2022-10-30T15:15:13.558Z,10.95
2022-10-30T15:17:43.468Z,11.80
2022-10-30T15:20:20.630Z,12.23
2022-10-30T15:22:57.496Z,9.48
2022-10-30T15:25:29.366Z,9.85
2022-10-30T15:27:58.082Z,13.43
2022-10-30T15:30:27.388Z,12.65
2022-10-30T15:32:54.409Z,10.90
2022-10-30T15:35:28.102Z,11.07
2022-10-30T15:38:03.777Z,10.50
2022-10-30T15:40:30.988Z,10.27
2022-10-30T15:43:00.336Z,12.80
2022-10-30T15:45:32.646Z,7.77
2022-10-30T15:48:06.370Z,10.07
2022-10-30T15:50:42.780Z,9.65
2022-10-30T15:53:19.218Z,9.60
2022-10-30T15:55:47.039Z,10.93
2022-10-30T15:58:18.324Z,8.20
2022-10-30T16:00:57.162Z,8.90
2022-10-30T16:03:24.757Z,10.07
2022-10-30T16:06:02.752Z,9.95
2022-10-30T16:08:29.591Z,10.30
2022-10-30T16:10:56.491Z,9.13
2022-10-30T16:13:28.705Z,13.40
2022-10-30T16:15:55.431Z,10.38
2022-10-30T16:18:25.918Z,9.23
2022-10-30T16:21:03.346Z,10.70
2022-10-30T16:23:36.127Z,13.30
2022-10-30T16:26:02.718Z,12.15
2022-10-30T16:28:35.152Z,14.57
2022-10-30T16:31:05.169Z,12.80
2022-10-30T16:33:33.980Z,12.90
2022-10-30T16:36:02.785Z,11.27
2022-10-30T16:38:34.019Z,34.65
2022-10-30T16:41:01.184Z,19.65
2022-10-30T16:43:30.490Z,18.25
2022-10-30T16:46:15.964Z,18.35
2022-10-30T16:48:56.091Z,15.17
2022-10-30T16:51:23.131Z,15.38
2022-10-30T16:53:52.078Z,16.42
2022-10-30T16:56:27.736Z,13.80
2022-10-30T16:59:07.065Z,14.18
2022-10-30T17:01:35.268Z,12.60
2022-10-30T17:04:02.454Z,14.70
2022-10-30T17:06:39.742Z,12.40
2022-10-30T17:09:09.343Z,12.48
2022-10-30T17:11:38.077Z,10.18
2022-10-30T17:14:19.604Z,12.37
2022-10-30T17:16:57.810Z,12.20
2022-10-30T17:19:30.247Z,14.60
2022-10-30T17:21:59.504Z,11.32
2022-10-30T17:24:32.735Z,12.13
2022-10-30T17:27:01.976Z,10.43
2022-10-30T17:29:46.971Z,12.00
2022-10-30T17:32:22.318Z,12.38
2022-10-30T17:35:00.352Z,13.27
2022-10-30T17:37:28.036Z,12.32
2022-10-30T17:39:54.814Z,14.67
2022-10-30T17:42:21.633Z,13.95
2022-10-30T17:44:48.450Z,18.95
2022-10-30T17:47:17.987Z,20.35
2022-10-30T17:49:45.157Z,17.23
2022-10-30T17:52:14.456Z,18.20
2022-10-30T17:54:42.096Z,19.10
2022-10-30T17:57:13.873Z,14.48
2022-10-30T17:59:41.125Z,14.23
2022-10-30T18:02:14.108Z,14.07
2022-10-30T18:04:42.330Z,16.33
2022-10-30T18:07:10.531Z,16.35
2022-10-30T18:09:37.630Z,14.15
2022-10-30T18:12:06.037Z,13.95
2022-10-30T18:14:33.055Z,12.70
2022-10-30T18:16:59.688Z,13.57
2022-10-30T18:19:26.501Z,12.52
2022-10-30T18:21:54.271Z,11.70
2022-10-30T18:24:21.063Z,12.68
2022-10-30T18:26:48.013Z,13.20
2022-10-30T18:29:14.734Z,15.53
2022-10-30T18:31:41.755Z,14.30
2022-10-30T18:34:16.441Z,13.52
2022-10-30T18:36:43.755Z,16.70
2022-10-30T18:39:12.911Z,16.25
2022-10-30T18:41:42.610Z,15.27
2022-10-30T18:44:13.904Z,18.88
2022-10-30T18:46:40.783Z,20.23
2022-10-30T18:49:07.417Z,22.35
2022-10-30T18:51:34.254Z,17.08
2022-10-30T18:54:01.039Z,18.67
2022-10-30T18:56:30.167Z,21.52
2022-10-30T18:59:00.585Z,19.23
2022-10-30T19:01:33.023Z,22.70
2022-10-30T19:04:04.551Z,22.20
2022-10-30T19:06:34.299Z,18.53
2022-10-30T19:09:01.909Z,19.83
2022-10-30T19:11:31.346Z,20.98
2022-10-30T19:13:58.934Z,25.73
2022-10-30T19:16:26.169Z,21.33
2022-10-30T19:18:53.298Z,18.40
2022-10-30T19:21:25.814Z,19.17
2022-10-30T19:23:54.319Z,17.65
2022-10-30T19:26:21.097Z,18.23
2022-10-30T19:28:48.053Z,18.83
2022-10-30T19:31:17.310Z,21.30
2022-10-30T19:33:44.518Z,20.20
2022-10-30T19:36:36.075Z,17.83
2022-10-30T19:39:14.186Z,23.00
2022-10-30T19:41:41.664Z,21.42
2022-10-30T19:44:09.865Z,22.20
2022-10-30T19:46:37.271Z,18.63
2022-10-30T19:49:16.760Z,25.45
2022-10-30T19:51:43.624Z,31.15
2022-10-30T19:54:11.074Z,34.75
2022-10-30T19:56:37.874Z,45.83
2022-10-30T19:59:10.019Z,45.33
2022-10-30T20:01:36.747Z,32.65
2022-10-30T20:04:04.061Z,25.85
2022-10-30T20:06:30.671Z,21.95
2022-10-30T20:08:57.693Z,18.67
2022-10-30T20:11:24.423Z,20.85
2022-10-30T20:13:53.829Z,21.05
2022-10-30T20:16:21.386Z,20.65
2022-10-30T20:18:49.452Z,20.80
2022-10-30T20:21:16.267Z,25.83
2022-10-30T20:23:43.059Z,20.45
2022-10-30T20:26:23.766Z,21.27
2022-10-30T20:28:51.000Z,18.85
2022-10-30T20:31:17.640Z,33.53
2022-10-30T20:33:44.649Z,37.40
2022-10-30T20:36:14.736Z,28.05
2022-10-30T20:38:41.564Z,22.15
2022-10-30T20:41:20.118Z,20.48
2022-10-30T20:43:47.107Z,21.65
2022-10-30T20:46:14.770Z,20.17
2022-10-30T20:48:41.493Z,22.35
2022-10-30T20:51:11.207Z,22.88
2022-10-30T20:53:37.868Z,20.02
2022-10-30T20:56:04.795Z,18.65
2022-10-30T20:58:31.633Z,18.00
2022-10-30T21:00:58.599Z,19.63
2022-10-30T21:03:26.334Z,15.57
2022-10-30T21:06:01.144Z,18.98
2022-10-30T21:08:31.294Z,16.05
2022-10-30T21:11:02.891Z,15.30
2022-10-30T21:13:30.077Z,15.10
2022-10-30T21:16:02.330Z,16.85
2022-10-30T21:18:29.534Z,18.27
2022-10-30T21:21:04.551Z,17.88
2022-10-30T21:23:31.892Z,15.57
2022-10-30T21:26:03.523Z,29.77
2022-10-30T21:28:30.582Z,27.63
2022-10-30T21:31:06.453Z,22.75
2022-10-30T21:33:34.561Z,27.65
2022-10-30T21:36:13.712Z,27.20
2022-10-30T21:38:42.071Z,28.50
2022-10-30T21:41:14.793Z,22.92
2022-10-30T21:43:42.141Z,35.67
2022-10-30T21:46:11.765Z,23.27
2022-10-30T21:48:38.640Z,23.17
2022-10-30T21:51:14.710Z,21.27
2022-10-30T21:53:42.240Z,16.88
2022-10-30T21:56:11.475Z,17.60
2022-10-30T21:58:38.693Z,14.45
2022-10-30T22:01:06.613Z,17.23
2022-10-30T22:03:33.757Z,16.90
2022-10-30T22:06:06.188Z,19.10
2022-10-30T22:08:33.609Z,14.27
2022-10-30T22:11:07.729Z,18.42
2022-10-30T22:13:35.354Z,16.03
2022-10-30T22:16:02.781Z,15.63
2022-10-30T22:18:29.739Z,22.50
2022-10-30T22:21:03.846Z,19.02
2022-10-30T22:23:30.771Z,18.88
2022-10-30T22:26:02.174Z,16.17
2022-10-30T22:28:30.347Z,18.30
2022-10-30T22:31:16.444Z,16.27
2022-10-30T22:33:43.974Z,18.20
2022-10-30T22:36:18.304Z,17.48
2022-10-30T22:38:46.485Z,14.40
2022-10-30T22:41:20.146Z,15.98
2022-10-30T22:43:48.804Z,14.27
2022-10-30T22:46:18.103Z,17.08
2022-10-30T22:48:45.861Z,12.40
2022-10-30T22:51:15.465Z,14.27
2022-10-30T22:53:44.249Z,14.38
2022-10-30T22:56:16.852Z,15.52
2022-10-30T22:58:45.506Z,12.05
2022-10-30T23:01:38.813Z,18.00
2022-10-30T23:04:07.418Z,23.30
2022-10-30T23:06:35.596Z,14.43
2022-10-30T23:09:06.288Z,15.07
2022-10-30T23:11:33.274Z,16.88
2022-10-30T23:14:00.176Z,12.27
2022-10-30T23:16:27.740Z,12.40
2022-10-30T23:18:56.586Z,11.45
2022-10-30T23:21:26.287Z,12.57
2022-10-30T23:23:53.697Z,13.52
2022-10-30T23:26:24.562Z,13.10
2022-10-30T23:28:53.197Z,18.97
2022-10-30T23:31:25.293Z,12.98
2022-10-30T23:33:53.979Z,15.23
2022-10-30T23:36:20.756Z,16.63
2022-10-30T23:38:55.052Z,14.95
2022-10-30T23:41:22.409Z,14.67
2022-10-30T23:43:53.679Z,16.08
2022-10-30T23:46:20.586Z,18.15
2022-10-30T23:48:47.442Z,16.75
2022-10-30T23:51:14.107Z,16.02
2022-10-30T23:53:41.041Z,12.97
2022-10-30T23:56:08.317Z,12.00
2022-10-30T23:58:35.275Z,14.38
